Terminal Aerodrome Forecast
Issued by NWS Knoxville/Tri Cities, TN

Home | Current Version | Previous Version | Text Only | Print | Product List | Glossary On
Versions: 1 2 3 4 5 6 7 8 9 10 11 12 13 14 15 16 17 18 19 20 21 22 23 24 25 26 27 28 29 30 31 32 33 34 35 36 37 38 39 40
000
FTUS44 KMRX 031301 AAA
TAFTYS
TAF AMD
KTYS 031301Z 0313/0412 23006KT P6SM VCSH SCT011 BKN035 OVC050
      TEMPO 0313/0316 -SHRA BKN025
     FM031600 23010KT P6SM VCTS SCT015CB BKN035
     FM032100 23013G23KT P6SM VCSH BKN025 BKN045
     FM040100 23017KT P6SM VCSH SCT025 OVC050
     FM040300 24011KT 5SM -SHRA BR BKN035 OVC070
     FM040900 23011KT 4SM -SHRA BR OVC015=

USA.gov is the U.S. government's official web portal to all federal, state and local government web resources and services.